createdAt,value
2024-05-09T00:01:56.337Z,48.32
2024-05-09T00:06:59.134Z,48.59
2024-05-09T00:12:02.401Z,48.54
2024-05-09T00:17:05.428Z,49.02
2024-05-09T00:22:10.198Z,49.34
2024-05-09T00:27:13.506Z,49.33
2024-05-09T00:32:16.463Z,49.50
2024-05-09T00:37:19.342Z,49.21
2024-05-09T00:42:22.420Z,49.27
2024-05-09T00:47:25.582Z,49.23
2024-05-09T00:52:28.988Z,49.54
2024-05-09T00:57:32.452Z,49.58
2024-05-09T01:02:35.820Z,50.00
2024-05-09T01:07:38.956Z,49.92
2024-05-09T01:12:41.778Z,49.64
2024-05-09T01:17:46.139Z,49.37
2024-05-09T01:22:50.538Z,49.50
2024-05-09T01:27:53.347Z,49.74
2024-05-09T01:32:56.847Z,50.11
2024-05-09T01:38:00.239Z,50.24
2024-05-09T01:43:03.511Z,50.33
2024-05-09T01:48:07.050Z,50.54
2024-05-09T01:53:14.923Z,50.89
2024-05-09T01:58:18.265Z,51.30
2024-05-09T02:03:21.747Z,51.24
2024-05-09T02:08:24.736Z,51.43
2024-05-09T02:13:27.731Z,51.60
2024-05-09T02:18:30.903Z,51.92
2024-05-09T02:23:33.954Z,52.05
2024-05-09T02:28:36.866Z,52.61
2024-05-09T02:33:39.857Z,52.53
2024-05-09T02:38:43.070Z,52.66
2024-05-09T02:43:46.018Z,53.04
2024-05-09T02:48:49.025Z,53.41
2024-05-09T02:53:51.960Z,53.77
2024-05-09T02:58:56.752Z,57.43
2024-05-09T03:03:59.858Z,55.31
2024-05-09T03:09:04.777Z,53.23
2024-05-09T03:14:07.726Z,52.02
2024-05-09T03:19:10.865Z,50.75
2024-05-09T03:24:14.017Z,50.26
2024-05-09T03:29:16.928Z,49.71
2024-05-09T03:34:19.908Z,49.05
2024-05-09T03:39:22.836Z,47.94
2024-05-09T03:44:25.949Z,48.56
2024-05-09T03:49:29.079Z,48.58
2024-05-09T03:54:35.517Z,49.35
2024-05-09T03:59:38.361Z,49.91
2024-05-09T04:04:42.144Z,50.19
2024-05-09T04:09:45.002Z,50.32
2024-05-09T04:14:47.893Z,50.54
2024-05-09T04:19:50.826Z,50.45
2024-05-09T04:24:53.758Z,50.33
2024-05-09T04:29:56.643Z,50.95
2024-05-09T04:34:59.512Z,50.49
2024-05-09T04:40:03.092Z,50.32
2024-05-09T04:45:06.653Z,50.68
2024-05-09T04:50:11.850Z,50.65
2024-05-09T04:55:17.699Z,50.32
2024-05-09T05:00:28.503Z,50.18
2024-05-09T05:05:40.302Z,50.03
2024-05-09T05:10:44.018Z,50.05
2024-05-09T05:15:47.863Z,50.36
2024-05-09T05:20:50.996Z,50.51
2024-05-09T05:25:54.934Z,50.61
2024-05-09T05:30:58.143Z,50.82
2024-05-09T05:36:00.994Z,50.44
2024-05-09T05:41:04.150Z,49.95
2024-05-09T05:46:07.178Z,49.07
2024-05-09T05:51:10.342Z,47.95
2024-05-09T05:56:13.332Z,47.63
2024-05-09T06:01:16.146Z,47.21
2024-05-09T06:06:18.991Z,46.66
2024-05-09T06:11:22.064Z,46.53
2024-05-09T06:16:25.011Z,46.24
2024-05-09T06:21:27.993Z,46.14
2024-05-09T06:26:30.952Z,46.39
2024-05-09T06:31:39.771Z,45.88
2024-05-09T06:36:42.723Z,46.29
2024-05-09T06:41:45.581Z,46.16
2024-05-09T06:46:48.993Z,45.65
2024-05-09T06:51:52.066Z,45.15
2024-05-09T06:56:55.030Z,45.78
2024-05-09T07:01:57.896Z,45.40
2024-05-09T07:07:00.755Z,45.61
2024-05-09T07:12:04.624Z,45.79
2024-05-09T07:17:07.705Z,45.74
2024-05-09T07:22:10.795Z,45.29
2024-05-09T07:27:13.852Z,44.89
2024-05-09T07:32:16.808Z,45.13
2024-05-09T07:37:19.707Z,45.39
2024-05-09T07:42:22.783Z,45.00
2024-05-09T07:48:56.936Z,45.14
2024-05-09T07:58:00.624Z,44.69
2024-05-09T08:03:04.045Z,44.56
2024-05-09T08:08:07.964Z,44.20
2024-05-09T08:13:11.047Z,43.54
2024-05-09T08:18:14.251Z,42.98
2024-05-09T08:23:17.909Z,42.90
2024-05-09T08:28:21.252Z,42.60
2024-05-09T08:33:24.249Z,41.52
2024-05-09T08:38:29.930Z,40.42
2024-05-09T08:43:32.827Z,40.10
2024-05-09T08:48:40.218Z,39.41
2024-05-09T08:53:43.243Z,38.73
2024-05-09T08:58:49.066Z,38.04
2024-05-09T09:03:53.618Z,36.73
2024-05-09T09:08:57.773Z,46.17
2024-05-09T09:14:00.886Z,43.97
2024-05-09T09:19:04.659Z,41.66
2024-05-09T09:24:09.934Z,39.56
2024-05-09T09:29:19.944Z,39.91
2024-05-09T09:34:27.878Z,38.96
2024-05-09T09:39:38.939Z,38.60
2024-05-09T09:44:47.819Z,37.57
2024-05-09T09:49:55.614Z,36.46
2024-05-09T09:54:59.487Z,37.27
2024-05-09T10:00:07.269Z,36.94
2024-05-09T10:05:15.440Z,35.35
2024-05-09T10:10:32.024Z,34.75
2024-05-09T10:15:46.460Z,34.12
2024-05-09T10:20:51.714Z,34.33
2024-05-09T10:25:58.882Z,33.49
2024-05-09T10:31:15.879Z,33.68
2024-05-09T10:36:25.639Z,33.58
2024-05-09T10:41:28.513Z,32.74
2024-05-09T10:46:31.822Z,31.40
2024-05-09T10:51:35.608Z,31.14
2024-05-09T10:56:38.635Z,30.65
2024-05-09T11:01:41.740Z,29.74
2024-05-09T11:06:46.461Z,29.88
2024-05-09T11:11:49.749Z,30.24
2024-05-09T11:17:05.673Z,29.70
2024-05-09T11:22:08.944Z,29.34
2024-05-09T11:27:12.765Z,29.86
2024-05-09T11:32:16.584Z,29.55
2024-05-09T11:37:19.845Z,29.60
2024-05-09T11:42:22.782Z,29.32
2024-05-09T11:47:25.859Z,28.16
2024-05-09T11:52:28.837Z,27.65
2024-05-09T11:57:32.174Z,27.57
2024-05-09T12:02:35.080Z,27.69
2024-05-09T12:07:37.954Z,27.95
2024-05-09T12:12:40.914Z,26.82
2024-05-09T12:17:44.853Z,25.88
2024-05-09T12:22:48.606Z,26.31
2024-05-09T12:27:51.882Z,26.47
2024-05-09T12:32:54.920Z,26.33
2024-05-09T12:37:57.878Z,25.89
2024-05-09T12:43:00.873Z,25.29
2024-05-09T12:48:06.882Z,24.83
2024-05-09T12:53:10.091Z,25.03
2024-05-09T12:58:13.711Z,24.09
2024-05-09T13:03:16.807Z,24.64
2024-05-09T13:08:20.390Z,24.53
2024-05-09T13:13:23.415Z,24.29
2024-05-09T13:18:26.251Z,24.78
2024-05-09T13:23:29.314Z,24.99
2024-05-09T13:28:33.580Z,24.66
2024-05-09T13:33:36.648Z,24.27
2024-05-09T13:38:39.636Z,23.74
2024-05-09T13:43:42.525Z,24.39
2024-05-09T13:48:46.167Z,24.71
2024-05-09T13:53:49.103Z,24.28
2024-05-09T13:58:52.310Z,23.91
2024-05-09T14:03:55.401Z,24.38
2024-05-09T14:08:58.531Z,24.26
2024-05-09T14:14:01.987Z,24.51
2024-05-09T14:19:05.047Z,24.57
2024-05-09T14:24:08.246Z,24.92
2024-05-09T14:29:11.161Z,24.91
2024-05-09T14:34:14.342Z,24.91
2024-05-09T14:39:17.375Z,25.07
2024-05-09T14:44:20.435Z,25.45
2024-05-09T14:49:23.310Z,25.81
2024-05-09T14:54:26.130Z,26.58
2024-05-09T14:59:29.013Z,26.60
2024-05-09T15:04:32.152Z,27.34
2024-05-09T15:09:36.120Z,27.92
2024-05-09T15:14:39.007Z,28.10
2024-05-09T15:19:42.119Z,28.37
2024-05-09T15:24:46.613Z,28.77
2024-05-09T15:29:49.484Z,28.90
2024-05-09T15:34:52.591Z,28.93
2024-05-09T15:39:55.509Z,29.31
2024-05-09T15:44:58.635Z,29.39
2024-05-09T15:50:01.660Z,29.34
2024-05-09T15:55:05.702Z,29.10
2024-05-09T16:00:15.243Z,29.37
2024-05-09T16:05:24.979Z,29.20
2024-05-09T16:10:32.648Z,29.04
2024-05-09T16:15:37.121Z,29.28
2024-05-09T16:20:42.292Z,30.52
2024-05-09T16:25:48.080Z,31.20
2024-05-09T16:30:51.546Z,31.38
2024-05-09T16:35:54.499Z,31.08
2024-05-09T16:40:57.481Z,31.42
2024-05-09T16:46:01.427Z,31.21
2024-05-09T16:51:05.019Z,31.11
2024-05-09T16:56:08.222Z,30.76
2024-05-09T17:01:13.630Z,31.12
2024-05-09T17:06:17.185Z,31.47
2024-05-09T17:11:20.209Z,31.60
2024-05-09T17:16:23.263Z,31.67
2024-05-09T17:21:26.413Z,31.77
2024-05-09T17:26:30.993Z,32.26
2024-05-09T17:31:34.021Z,32.63
2024-05-09T17:36:37.197Z,33.09
2024-05-09T17:41:40.184Z,33.22
2024-05-09T17:46:43.127Z,33.41
2024-05-09T17:51:55.543Z,34.04
2024-05-09T17:56:58.832Z,34.27
2024-05-09T18:02:02.175Z,34.33
2024-05-09T18:07:05.730Z,34.01
2024-05-09T18:12:08.850Z,34.39
2024-05-09T18:17:13.347Z,34.62
2024-05-09T18:22:16.439Z,34.67
2024-05-09T18:27:19.377Z,35.98
2024-05-09T18:32:22.323Z,36.44
2024-05-09T18:37:25.504Z,37.32
2024-05-09T18:42:28.479Z,38.54
2024-05-09T18:47:32.199Z,38.65
2024-05-09T18:52:35.115Z,39.50
2024-05-09T18:57:37.968Z,39.72
2024-05-09T19:02:41.028Z,40.97
2024-05-09T19:07:44.409Z,40.92
2024-05-09T19:12:47.441Z,40.88
2024-05-09T19:17:50.543Z,40.80
2024-05-09T19:22:53.548Z,40.98
2024-05-09T19:27:56.703Z,41.21
2024-05-09T19:32:59.904Z,41.20
2024-05-09T19:38:03.718Z,41.32
2024-05-09T19:43:07.119Z,41.09
2024-05-09T19:48:10.724Z,41.11
2024-05-09T19:53:14.518Z,41.82
2024-05-09T19:58:18.446Z,42.04
2024-05-09T20:03:21.590Z,42.09
2024-05-09T20:08:24.985Z,42.73
2024-05-09T20:13:28.109Z,42.71
2024-05-09T20:18:31.311Z,42.71
2024-05-09T20:23:34.305Z,42.97
2024-05-09T20:28:37.601Z,42.81
2024-05-09T20:33:40.791Z,43.04
2024-05-09T20:38:43.914Z,43.60
2024-05-09T20:43:52.071Z,43.67
2024-05-09T20:48:59.485Z,43.91
2024-05-09T20:54:03.388Z,43.82
2024-05-09T20:59:11.082Z,43.87
2024-05-09T21:04:16.153Z,43.94
2024-05-09T21:09:25.521Z,44.10
2024-05-09T21:14:28.737Z,44.53
2024-05-09T21:19:31.632Z,45.13
2024-05-09T21:24:34.598Z,45.82
2024-05-09T21:29:37.517Z,45.80
2024-05-09T21:34:40.513Z,45.78
2024-05-09T21:39:43.683Z,45.69
2024-05-09T21:44:46.655Z,46.39
2024-05-09T21:49:49.779Z,46.52
2024-05-09T21:54:52.790Z,46.88
2024-05-09T21:59:55.775Z,47.72
2024-05-09T22:04:59.811Z,48.38
2024-05-09T22:10:10.073Z,48.77
2024-05-09T22:15:21.078Z,49.40
2024-05-09T22:20:32.879Z,49.70
2024-05-09T22:25:39.509Z,50.26
2024-05-09T22:30:44.023Z,50.69
2024-05-09T22:35:48.038Z,51.16
2024-05-09T22:40:52.207Z,51.58
2024-05-09T22:45:55.707Z,51.90
2024-05-09T22:50:59.085Z,52.51
2024-05-09T22:56:02.551Z,53.06
2024-05-09T23:01:05.848Z,53.34
2024-05-09T23:06:08.950Z,53.68
2024-05-09T23:11:11.981Z,54.08
2024-05-09T23:16:14.994Z,54.60
2024-05-09T23:21:18.069Z,54.78
2024-05-09T23:26:20.973Z,55.28
2024-05-09T23:31:24.064Z,55.53
2024-05-09T23:36:29.075Z,55.89
2024-05-09T23:41:32.136Z,56.21
2024-05-09T23:46:35.410Z,56.37
2024-05-09T23:51:38.364Z,56.49
2024-05-09T23:56:41.278Z,56.78
